createdAt,value
2018-12-17T00:01:47.428Z,-0.40
2018-12-17T00:04:20.018Z,-0.40
2018-12-17T00:06:52.582Z,-0.40
2018-12-17T00:09:22.971Z,-0.40
2018-12-17T00:11:53.333Z,-0.40
2018-12-17T00:14:23.408Z,-0.40
2018-12-17T00:16:54.264Z,-0.50
2018-12-17T00:19:24.534Z,-0.50
2018-12-17T00:21:54.933Z,-0.50
2018-12-17T00:24:25.448Z,-0.50
2018-12-17T00:26:56.434Z,-0.50
2018-12-17T00:29:26.807Z,-0.50
2018-12-17T00:31:57.060Z,-0.50
2018-12-17T00:34:27.776Z,-0.50
2018-12-17T00:36:58.485Z,-0.50
2018-12-17T00:39:29.220Z,-0.40
2018-12-17T00:41:59.921Z,-0.50
2018-12-17T00:44:29.968Z,-0.50
2018-12-17T00:47:00.278Z,-0.50
2018-12-17T00:49:30.691Z,-0.50
2018-12-17T00:52:00.825Z,-0.50
2018-12-17T00:54:31.306Z,-0.50
2018-12-17T00:57:01.521Z,-0.40
2018-12-17T00:59:31.951Z,-0.40
2018-12-17T01:02:02.829Z,-0.40
2018-12-17T01:04:33.156Z,-0.40
2018-12-17T01:07:03.078Z,-0.40
2018-12-17T01:09:33.141Z,-0.40
2018-12-17T01:12:03.676Z,-0.40
2018-12-17T01:14:34.283Z,-0.40
2018-12-17T01:17:04.853Z,-0.40
2018-12-17T01:19:34.827Z,-0.40
2018-12-17T01:22:05.121Z,-0.40
2018-12-17T01:24:35.271Z,-0.40
2018-12-17T01:27:13.424Z,-0.40
2018-12-17T01:29:43.726Z,-0.40
2018-12-17T01:32:13.675Z,-0.40
2018-12-17T01:34:43.779Z,-0.40
2018-12-17T01:37:14.149Z,-0.40
2018-12-17T01:39:44.326Z,-0.40
2018-12-17T01:42:14.256Z,-0.40
2018-12-17T01:44:44.368Z,-0.40
2018-12-17T01:47:14.681Z,-0.40
2018-12-17T01:49:44.596Z,-0.40
2018-12-17T01:52:14.596Z,-0.40
2018-12-17T01:54:44.761Z,-0.40
2018-12-17T01:57:14.967Z,-0.40
2018-12-17T01:59:44.914Z,-0.40
2018-12-17T02:02:15.214Z,-0.40
2018-12-17T02:04:45.508Z,-0.40
2018-12-17T02:07:17.100Z,-0.40
2018-12-17T02:09:47.731Z,-0.40
2018-12-17T02:12:18.047Z,-0.40
2018-12-17T02:14:48.270Z,-0.40
2018-12-17T02:17:18.819Z,-0.40
2018-12-17T02:19:49.746Z,-0.40
2018-12-17T02:22:20.591Z,-0.40
2018-12-17T02:24:51.007Z,-0.40
2018-12-17T02:27:21.523Z,-0.50
2018-12-17T02:29:51.526Z,-0.50
2018-12-17T02:32:21.585Z,-0.50
2018-12-17T02:34:57.326Z,-0.50
2018-12-17T02:37:28.629Z,-0.50
2018-12-17T02:39:58.862Z,-0.60
2018-12-17T02:42:30.414Z,-0.60
2018-12-17T02:45:01.464Z,-0.60
2018-12-17T02:47:32.559Z,-0.60
2018-12-17T02:50:03.267Z,-0.60
2018-12-17T02:52:33.377Z,-0.60
2018-12-17T02:55:04.794Z,-0.60
2018-12-17T02:57:35.190Z,-0.60
2018-12-17T03:00:06.884Z,-0.70
2018-12-17T03:02:39.973Z,-0.70
2018-12-17T03:05:11.677Z,-0.80
2018-12-17T03:07:41.684Z,-0.80
2018-12-17T03:10:12.118Z,-0.90
2018-12-17T03:12:42.696Z,-0.90
2018-12-17T03:15:13.170Z,-1.00
2018-12-17T03:17:43.556Z,-1.00
2018-12-17T03:20:13.689Z,-1.00
2018-12-17T03:22:44.160Z,-1.10
2018-12-17T03:25:14.527Z,-1.10
2018-12-17T03:27:44.922Z,-1.10
2018-12-17T03:30:15.550Z,-1.10
2018-12-17T03:32:45.630Z,-1.10
2018-12-17T03:35:16.086Z,-1.10
2018-12-17T03:37:46.869Z,-1.10
2018-12-17T03:40:17.061Z,-1.10
2018-12-17T03:42:47.412Z,-1.10
2018-12-17T03:45:17.768Z,-1.10
2018-12-17T03:47:47.712Z,-1.10
2018-12-17T03:50:18.292Z,-1.10
2018-12-17T03:52:48.343Z,-1.10
2018-12-17T03:55:18.678Z,-1.20
2018-12-17T03:57:48.829Z,-1.10
2018-12-17T04:00:28.017Z,-1.20
2018-12-17T04:02:57.866Z,-1.10
2018-12-17T04:05:29.290Z,-1.10
2018-12-17T04:07:59.584Z,-1.10
2018-12-17T04:10:29.721Z,-1.10
2018-12-17T04:13:00.863Z,-1.10
2018-12-17T04:15:31.599Z,-1.00
2018-12-17T04:18:01.946Z,-1.00
2018-12-17T04:20:32.291Z,-1.00
2018-12-17T04:23:02.593Z,-1.00
2018-12-17T04:25:32.608Z,-1.00
2018-12-17T04:28:02.773Z,-1.00
2018-12-17T04:30:33.010Z,-1.00
2018-12-17T04:33:03.064Z,-1.00
2018-12-17T04:35:33.654Z,-1.00
2018-12-17T04:38:03.755Z,-1.00
2018-12-17T04:40:34.026Z,-1.00
2018-12-17T04:43:04.133Z,-0.90
2018-12-17T04:45:33.992Z,-0.90
2018-12-17T04:48:09.456Z,-0.90
2018-12-17T04:50:40.130Z,-0.90
2018-12-17T04:53:10.224Z,-0.90
2018-12-17T04:55:40.517Z,-0.90
2018-12-17T04:58:10.763Z,-0.90
2018-12-17T05:00:41.327Z,-0.90
2018-12-17T05:03:11.553Z,-0.90
2018-12-17T05:05:41.840Z,-0.90
2018-12-17T05:08:13.129Z,-0.90
2018-12-17T05:10:44.103Z,-0.90
2018-12-17T05:13:14.513Z,-0.90
2018-12-17T05:15:44.767Z,-0.90
2018-12-17T05:18:14.595Z,-0.80
2018-12-17T05:20:45.263Z,-0.80
2018-12-17T05:23:15.451Z,-0.80
2018-12-17T05:25:45.904Z,-0.80
2018-12-17T05:28:16.008Z,-0.80
2018-12-17T05:30:46.167Z,-0.80
2018-12-17T05:33:16.407Z,-0.70
2018-12-17T05:35:46.758Z,-0.70
2018-12-17T05:38:17.027Z,-0.80
2018-12-17T05:40:47.375Z,-0.70
2018-12-17T05:43:17.539Z,-0.70
2018-12-17T05:45:48.596Z,-0.70
2018-12-17T05:48:19.195Z,-0.70
2018-12-17T05:50:49.782Z,-0.70
2018-12-17T05:53:20.509Z,-0.60
2018-12-17T05:55:50.891Z,-0.60
2018-12-17T05:58:21.368Z,-0.60
2018-12-17T06:00:52.757Z,-0.50
2018-12-17T06:03:23.299Z,-0.50
2018-12-17T06:05:53.350Z,-0.50
2018-12-17T06:08:23.715Z,-0.50
2018-12-17T06:10:54.644Z,-0.50
2018-12-17T06:13:24.787Z,-0.60
2018-12-17T06:15:55.654Z,-0.60
2018-12-17T06:18:25.530Z,-0.60
2018-12-17T06:20:56.650Z,-0.60
2018-12-17T06:23:27.465Z,-0.70
2018-12-17T06:25:58.177Z,-0.80
2018-12-17T06:28:28.417Z,-0.80
2018-12-17T06:30:58.809Z,-0.80
2018-12-17T06:33:29.508Z,-0.90
2018-12-17T06:35:59.831Z,-0.90
2018-12-17T06:38:30.314Z,-0.90
2018-12-17T06:41:00.789Z,-1.00
2018-12-17T06:43:31.658Z,-0.90
2018-12-17T06:46:02.278Z,-1.00
2018-12-17T06:48:32.177Z,-1.00
2018-12-17T06:51:02.293Z,-0.90
2018-12-17T06:53:33.044Z,-1.00
2018-12-17T06:56:04.750Z,-0.90
2018-12-17T06:58:36.608Z,-0.90
2018-12-17T07:01:07.477Z,-0.80
2018-12-17T07:03:37.782Z,-0.80
2018-12-17T07:06:08.081Z,-0.80
2018-12-17T07:08:38.487Z,-0.70
2018-12-17T07:11:09.575Z,-0.70
2018-12-17T07:13:39.719Z,-0.60
2018-12-17T07:16:10.299Z,-0.60
2018-12-17T07:18:41.076Z,-0.50
2018-12-17T07:21:11.771Z,-0.40
2018-12-17T07:23:42.068Z,-0.40
2018-12-17T07:26:12.546Z,-0.30
2018-12-17T07:28:43.283Z,-0.30
2018-12-17T07:31:14.318Z,-0.20
2018-12-17T07:33:44.688Z,-0.20
2018-12-17T07:36:15.325Z,-0.20
2018-12-17T07:38:47.034Z,-0.20
2018-12-17T07:41:17.632Z,-0.10
2018-12-17T07:43:48.712Z,-0.10
2018-12-17T07:46:19.726Z,-0.10
2018-12-17T07:48:49.664Z,0.00
2018-12-17T07:51:20.659Z,0.00
2018-12-17T07:53:50.773Z,0.00
2018-12-17T07:56:20.985Z,0.00
2018-12-17T07:58:51.896Z,0.00
2018-12-17T08:01:22.339Z,0.00
2018-12-17T08:03:53.777Z,0.00
2018-12-17T08:06:23.891Z,0.00
2018-12-17T08:08:54.208Z,0.00
2018-12-17T08:11:24.437Z,0.00
2018-12-17T08:13:54.686Z,0.00
2018-12-17T08:16:24.862Z,0.10
2018-12-17T08:18:55.261Z,0.30
2018-12-17T08:21:25.610Z,0.30
2018-12-17T08:23:56.283Z,0.20
2018-12-17T08:26:29.955Z,0.20
2018-12-17T08:29:00.893Z,0.10
2018-12-17T08:31:31.607Z,0.10
2018-12-17T08:34:02.044Z,0.00
2018-12-17T08:36:32.537Z,0.00
2018-12-17T08:39:03.816Z,0.00
2018-12-17T08:41:34.883Z,0.00
2018-12-17T08:44:05.638Z,0.00
2018-12-17T08:46:36.505Z,0.00
2018-12-17T08:49:07.616Z,0.00
2018-12-17T08:51:39.598Z,-0.10
2018-12-17T08:54:09.951Z,0.00
2018-12-17T08:56:40.493Z,-0.10
2018-12-17T08:59:10.920Z,0.00
2018-12-17T09:01:41.977Z,0.00
2018-12-17T09:04:11.976Z,0.00
2018-12-17T09:06:42.315Z,0.00
2018-12-17T09:09:12.629Z,0.00
2018-12-17T09:11:43.020Z,0.00
2018-12-17T09:14:13.161Z,0.00
2018-12-17T09:16:43.436Z,0.00
2018-12-17T09:19:14.042Z,0.00
2018-12-17T09:21:44.553Z,0.00
2018-12-17T09:24:15.350Z,0.10
2018-12-17T09:26:45.507Z,0.10
2018-12-17T09:29:16.120Z,0.10
2018-12-17T09:31:46.478Z,0.10
2018-12-17T09:34:16.870Z,0.00
2018-12-17T09:36:47.396Z,0.10
2018-12-17T09:39:17.583Z,0.10
2018-12-17T09:41:48.367Z,0.10
2018-12-17T09:44:18.407Z,0.20
2018-12-17T09:46:50.000Z,0.20
2018-12-17T09:49:20.575Z,0.20
2018-12-17T09:51:50.596Z,0.20
2018-12-17T09:54:20.890Z,0.30
2018-12-17T09:56:52.792Z,0.30
2018-12-17T09:59:23.879Z,0.40
2018-12-17T10:02:00.296Z,0.40
2018-12-17T10:04:36.102Z,0.50
2018-12-17T10:07:08.063Z,0.50
2018-12-17T10:09:40.475Z,0.50
2018-12-17T10:12:13.668Z,0.60
2018-12-17T10:14:43.878Z,0.90
2018-12-17T10:17:14.754Z,1.10
2018-12-17T10:19:45.023Z,1.20
2018-12-17T10:22:15.567Z,1.20
2018-12-17T10:24:45.629Z,1.30
2018-12-17T10:27:16.460Z,1.40
2018-12-17T10:29:46.683Z,1.50
2018-12-17T10:32:21.709Z,1.60
2018-12-17T10:34:52.981Z,1.70
2018-12-17T10:37:24.229Z,1.70
2018-12-17T10:39:57.846Z,1.70
2018-12-17T10:42:28.280Z,1.60
2018-12-17T10:44:59.281Z,1.50
2018-12-17T10:47:29.724Z,1.40
2018-12-17T10:50:01.757Z,1.30
2018-12-17T10:52:33.953Z,1.10
2018-12-17T10:55:09.554Z,1.00
2018-12-17T10:57:40.292Z,1.00
2018-12-17T11:00:19.758Z,0.90
2018-12-17T11:02:52.346Z,0.80
2018-12-17T11:05:25.087Z,0.70
2018-12-17T11:07:55.659Z,0.60
2018-12-17T11:10:27.248Z,0.50
2018-12-17T11:13:02.549Z,0.60
2018-12-17T11:15:36.564Z,0.60
2018-12-17T11:18:09.267Z,0.70
2018-12-17T11:20:40.235Z,0.80
2018-12-17T11:23:14.012Z,0.70
2018-12-17T11:25:46.403Z,0.80
2018-12-17T11:28:18.246Z,0.80
2018-12-17T11:30:52.486Z,0.80
2018-12-17T11:33:25.074Z,0.90
2018-12-17T11:35:55.971Z,0.80
2018-12-17T11:38:26.132Z,0.80
2018-12-17T11:40:57.568Z,0.70
2018-12-17T11:43:31.067Z,0.70
2018-12-17T11:46:03.864Z,0.70
2018-12-17T11:48:34.522Z,0.80
2018-12-17T11:51:04.604Z,0.90
2018-12-17T11:53:34.665Z,1.00
2018-12-17T11:56:05.458Z,1.00
2018-12-17T11:58:35.653Z,1.00
2018-12-17T12:01:08.559Z,1.10
2018-12-17T12:03:42.730Z,1.40
2018-12-17T12:06:14.304Z,1.80
2018-12-17T12:08:44.679Z,2.20
2018-12-17T12:11:14.953Z,2.20
2018-12-17T12:13:45.211Z,2.20
2018-12-17T12:16:16.029Z,1.80
2018-12-17T12:18:47.205Z,1.60
2018-12-17T12:21:17.428Z,1.40
2018-12-17T12:23:48.597Z,1.20
2018-12-17T12:26:19.104Z,1.00
2018-12-17T12:28:49.306Z,0.90
2018-12-17T12:31:19.811Z,0.80
2018-12-17T12:33:50.026Z,0.80
2018-12-17T12:36:20.735Z,0.80
2018-12-17T12:38:51.027Z,0.70
2018-12-17T12:41:21.406Z,0.60
2018-12-17T12:43:51.839Z,0.60
2018-12-17T12:46:22.059Z,0.60
2018-12-17T12:48:52.193Z,0.60
2018-12-17T12:51:22.195Z,0.60
2018-12-17T12:53:52.398Z,0.60
2018-12-17T12:56:22.922Z,0.60
2018-12-17T12:58:53.013Z,0.60
2018-12-17T13:01:24.064Z,0.60
2018-12-17T13:03:54.671Z,0.50
2018-12-17T13:06:24.683Z,0.50
2018-12-17T13:08:54.926Z,0.50
2018-12-17T13:11:24.992Z,0.50
2018-12-17T13:13:55.357Z,0.50
2018-12-17T13:16:24.915Z,0.50
2018-12-17T13:18:55.385Z,0.60
2018-12-17T13:21:25.818Z,0.60
2018-12-17T13:23:55.731Z,0.60
2018-12-17T13:26:25.478Z,0.50
2018-12-17T13:28:55.123Z,0.50
2018-12-17T13:31:26.016Z,0.40
2018-12-17T13:33:55.818Z,0.30
2018-12-17T13:36:26.234Z,0.30
2018-12-17T13:38:56.088Z,0.30
2018-12-17T13:41:26.125Z,0.20
2018-12-17T13:43:56.228Z,0.20
2018-12-17T13:46:26.422Z,0.20
2018-12-17T13:48:56.613Z,0.20
2018-12-17T13:51:31.776Z,0.20
2018-12-17T13:54:01.985Z,0.30
2018-12-17T13:56:32.256Z,0.30
2018-12-17T13:59:02.417Z,0.30
2018-12-17T14:01:32.376Z,0.40
2018-12-17T14:04:02.361Z,0.40
2018-12-17T14:06:32.509Z,0.40
2018-12-17T14:09:02.701Z,0.40
2018-12-17T14:11:33.811Z,0.30
2018-12-17T14:14:03.999Z,0.30
2018-12-17T14:16:39.029Z,0.30
2018-12-17T14:19:14.798Z,0.20
2018-12-17T14:21:49.962Z,0.20
2018-12-17T14:24:19.999Z,0.10
2018-12-17T14:26:49.826Z,0.10
2018-12-17T14:29:19.732Z,0.00
2018-12-17T14:31:50.066Z,0.00
2018-12-17T14:34:20.076Z,-0.10
2018-12-17T14:36:50.170Z,-0.10
2018-12-17T14:39:20.015Z,-0.10
2018-12-17T14:41:50.008Z,-0.10
2018-12-17T14:44:24.865Z,-0.20
2018-12-17T14:46:58.928Z,-0.20
2018-12-17T14:49:28.964Z,-0.30
2018-12-17T14:51:58.763Z,-0.30
2018-12-17T14:54:28.829Z,-0.40
2018-12-17T14:56:58.743Z,-0.40
2018-12-17T14:59:28.740Z,-0.40
2018-12-17T15:01:58.805Z,-0.50
2018-12-17T15:04:28.861Z,-0.60
2018-12-17T15:06:58.533Z,-0.60
2018-12-17T15:09:28.888Z,-0.70
2018-12-17T15:11:58.601Z,-0.80
2018-12-17T15:14:28.572Z,-0.80
2018-12-17T15:16:58.910Z,-0.90
2018-12-17T15:19:28.956Z,-1.00
2018-12-17T15:21:58.623Z,-1.00
2018-12-17T15:24:28.859Z,-1.10
2018-12-17T15:26:59.183Z,-1.20
2018-12-17T15:29:29.278Z,-1.20
2018-12-17T15:31:59.270Z,-1.30
2018-12-17T15:34:29.115Z,-1.30
2018-12-17T15:36:59.385Z,-1.40
2018-12-17T15:39:29.449Z,-1.40
2018-12-17T15:41:59.219Z,-1.40
2018-12-17T15:44:29.135Z,-1.50
2018-12-17T15:46:59.141Z,-1.50
2018-12-17T15:49:29.017Z,-1.50
2018-12-17T15:51:58.991Z,-1.60
2018-12-17T15:54:29.274Z,-1.50
2018-12-17T15:56:59.739Z,-1.60
2018-12-17T15:59:29.957Z,-1.60
2018-12-17T16:02:00.306Z,-1.60
2018-12-17T16:04:30.778Z,-1.60
2018-12-17T16:07:00.914Z,-1.70
2018-12-17T16:09:32.105Z,-1.70
2018-12-17T16:12:03.529Z,-1.70
2018-12-17T16:14:34.193Z,-1.80
2018-12-17T16:17:04.522Z,-1.80
2018-12-17T16:19:34.666Z,-1.80
2018-12-17T16:22:04.913Z,-1.90
2018-12-17T16:24:35.036Z,-1.90
2018-12-17T16:27:05.806Z,-1.90
2018-12-17T16:29:36.019Z,-2.00
2018-12-17T16:32:06.326Z,-2.00
2018-12-17T16:34:36.706Z,-2.00
2018-12-17T16:37:08.095Z,-2.00
2018-12-17T16:39:40.022Z,-2.10
2018-12-17T16:42:13.215Z,-2.10
2018-12-17T16:44:43.474Z,-2.20
2018-12-17T16:47:16.278Z,-2.20
2018-12-17T16:49:47.003Z,-2.20
2018-12-17T16:52:17.282Z,-2.20
2018-12-17T16:54:49.274Z,-2.30
2018-12-17T16:57:22.509Z,-2.30
2018-12-17T16:59:53.347Z,-2.30
2018-12-17T17:02:23.886Z,-2.30
2018-12-17T17:04:59.739Z,-2.40
2018-12-17T17:07:30.122Z,-2.40
2018-12-17T17:10:04.817Z,-2.40
2018-12-17T17:12:37.345Z,-2.40
2018-12-17T17:15:11.969Z,-2.50
2018-12-17T17:17:43.343Z,-2.50
2018-12-17T17:20:15.076Z,-2.50
2018-12-17T17:22:49.034Z,-2.50
2018-12-17T17:25:25.288Z,-2.50
2018-12-17T17:27:56.144Z,-2.50
2018-12-17T17:30:29.019Z,-2.50
2018-12-17T17:32:59.440Z,-2.50
2018-12-17T17:35:35.630Z,-2.50
2018-12-17T17:38:07.889Z,-2.60
2018-12-17T17:40:38.386Z,-2.60
2018-12-17T17:43:09.770Z,-2.60
2018-12-17T17:45:39.721Z,-2.60
2018-12-17T17:48:11.270Z,-2.60
2018-12-17T17:50:48.079Z,-2.60
2018-12-17T17:53:18.697Z,-2.60
2018-12-17T17:55:49.250Z,-2.60
2018-12-17T17:58:19.622Z,-2.60
2018-12-17T18:00:49.852Z,-2.70
2018-12-17T18:03:20.950Z,-2.70
2018-12-17T18:05:52.011Z,-2.80
2018-12-17T18:08:23.324Z,-2.80
2018-12-17T18:10:54.565Z,-2.80
2018-12-17T18:13:31.081Z,-2.80
2018-12-17T18:16:02.868Z,-2.90
2018-12-17T18:18:36.566Z,-2.90
2018-12-17T18:21:12.342Z,-2.90
2018-12-17T18:26:51.164Z,-2.90
2018-12-17T18:29:22.922Z,-2.90
2018-12-17T18:32:02.502Z,-2.90
2018-12-17T18:34:33.571Z,-2.90
2018-12-17T18:37:03.917Z,-3.00
2018-12-17T18:39:36.792Z,-3.00
2018-12-17T18:42:08.998Z,-3.00
2018-12-17T18:44:39.361Z,-3.00
2018-12-17T18:47:12.326Z,-3.10
2018-12-17T18:49:46.011Z,-3.00
2018-12-17T18:52:17.297Z,-3.10
2018-12-17T18:55:11.367Z,-3.10
2018-12-17T18:57:49.152Z,-3.10
2018-12-17T19:00:29.468Z,-3.10
2018-12-17T19:03:06.137Z,-3.10
2018-12-17T19:05:38.244Z,-3.10
2018-12-17T19:08:36.123Z,-3.20
2018-12-17T19:11:20.718Z,-3.20
2018-12-17T19:13:51.713Z,-3.20
2018-12-17T19:16:27.530Z,-3.20
2018-12-17T19:18:59.396Z,-3.20
2018-12-17T19:21:29.666Z,-3.30
2018-12-17T19:24:02.133Z,-3.30
2018-12-17T19:26:33.152Z,-3.30
2018-12-17T19:29:03.289Z,-3.30
2018-12-17T19:31:34.957Z,-3.30
2018-12-17T19:34:05.744Z,-3.30
2018-12-17T19:36:43.188Z,-3.30
2018-12-17T19:39:13.649Z,-3.30
2018-12-17T19:41:59.174Z,-3.30
2018-12-17T19:44:38.140Z,-3.30
2018-12-17T19:47:13.016Z,-3.20
2018-12-17T19:49:44.410Z,-3.10
2018-12-17T19:52:32.805Z,-3.10
2018-12-17T19:55:03.511Z,-3.10
2018-12-17T19:57:40.687Z,-3.20
2018-12-17T20:00:11.923Z,-3.20
2018-12-17T20:02:46.930Z,-3.20
2018-12-17T20:05:19.103Z,-3.20
2018-12-17T20:08:13.194Z,-3.20
2018-12-17T20:10:58.978Z,-3.20
2018-12-17T20:13:42.264Z,-3.20
2018-12-17T20:16:12.824Z,-3.20
2018-12-17T20:18:43.682Z,-3.10
2018-12-17T20:21:26.640Z,-3.20
2018-12-17T20:24:18.291Z,-3.10
2018-12-17T20:26:59.914Z,-3.20
2018-12-17T20:29:50.274Z,-3.20
2018-12-17T20:32:45.163Z,-3.30
2018-12-17T20:45:36.457Z,-3.40
2018-12-17T20:50:59.550Z,-3.40
2018-12-17T20:53:46.090Z,-3.30
2018-12-17T20:56:35.183Z,-3.30
2018-12-17T20:59:14.451Z,-3.30
2018-12-17T21:01:54.264Z,-3.30
2018-12-17T21:04:34.104Z,-3.20
2018-12-17T21:07:16.881Z,-3.20
2018-12-17T21:09:51.849Z,-3.20
2018-12-17T21:12:24.722Z,-3.30
2018-12-17T21:15:05.834Z,-3.30
2018-12-17T21:17:40.167Z,-3.30
2018-12-17T21:20:14.450Z,-3.30
2018-12-17T21:22:46.092Z,-3.20
2018-12-17T21:25:31.933Z,-3.20
2018-12-17T21:28:04.429Z,-3.30
2018-12-17T21:30:52.945Z,-3.30
2018-12-17T21:33:33.574Z,-3.40
2018-12-17T21:36:04.179Z,-3.30
2018-12-17T21:39:00.574Z,-3.40
2018-12-17T21:41:36.593Z,-3.40
2018-12-17T21:44:11.134Z,-3.40
2018-12-17T21:46:41.336Z,-3.40
2018-12-17T21:49:19.621Z,-3.50
2018-12-17T21:52:01.180Z,-3.50
2018-12-17T21:54:35.819Z,-3.50
2018-12-17T21:57:09.800Z,-3.50
2018-12-17T21:59:49.981Z,-3.50
2018-12-17T22:02:30.412Z,-3.60
2018-12-17T22:05:15.011Z,-3.50
2018-12-17T22:07:45.307Z,-3.50
2018-12-17T22:10:20.170Z,-3.50
2018-12-17T22:12:51.035Z,-3.60
2018-12-17T22:15:21.961Z,-3.60
2018-12-17T22:18:03.255Z,-3.60
2018-12-17T22:20:37.277Z,-3.60
2018-12-17T22:23:07.512Z,-3.60
2018-12-17T22:25:38.168Z,-3.60
2018-12-17T22:28:20.001Z,-3.70
2018-12-17T22:30:51.279Z,-3.70
2018-12-17T22:33:21.769Z,-3.70
2018-12-17T22:35:51.947Z,-3.70
2018-12-17T22:38:22.646Z,-3.70
2018-12-17T22:40:53.758Z,-3.80
2018-12-17T22:43:24.640Z,-3.70
2018-12-17T22:45:55.606Z,-3.70
2018-12-17T22:48:28.418Z,-3.70
2018-12-17T22:50:58.407Z,-3.60
2018-12-17T22:53:28.316Z,-3.60
2018-12-17T22:55:59.189Z,-3.50
2018-12-17T22:58:33.880Z,-3.50
2018-12-17T23:01:04.372Z,-3.40
2018-12-17T23:03:37.036Z,-3.40
2018-12-17T23:06:07.964Z,-3.40
2018-12-17T23:08:40.228Z,-3.30
2018-12-17T23:11:22.523Z,-3.30
2018-12-17T23:14:03.498Z,-3.20
2018-12-17T23:16:44.266Z,-3.20
2018-12-17T23:19:13.597Z,-3.10
2018-12-17T23:21:45.827Z,-3.10
2018-12-17T23:24:17.840Z,-3.10
2018-12-17T23:26:48.703Z,-3.00
2018-12-17T23:29:20.980Z,-2.90
2018-12-17T23:31:54.782Z,-2.90
2018-12-17T23:34:36.064Z,-2.80
2018-12-17T23:37:06.304Z,-2.80
2018-12-17T23:39:36.560Z,-2.80
2018-12-17T23:42:17.501Z,-2.70
2018-12-17T23:44:48.095Z,-2.70
2018-12-17T23:47:18.354Z,-2.60
2018-12-17T23:49:48.599Z,-2.60
2018-12-17T23:52:25.329Z,-2.60
2018-12-17T23:54:56.087Z,-2.60
2018-12-17T23:57:26.048Z,-2.50
2018-12-17T23:59:55.890Z,-2.50
